Bishopbriggs, United Kingdom
Current Conditions -  °F | °C
As of 7:50 PM on Friday 19 Dec 2014 (Local Time) from EGPF Reporting Station
Broken Clouds Broken Clouds  
Wind Chill: 34°   Ceiling: 3700
Heat Index: 43°   Visibility: 6mi
Dew Point: 36°   Wind: 20mph
Humidity: 76%   Direction: 260°W
Pressure: 29.8"   Gusts: NA
Location:  55.91°N, 4.22°W
Report Text: EGPF 191950Z AUTO 26017KT 9999 BKN037/// //////TCU 06/02 Q1009
Loading
Personal Weather Stations






























Interactive Weather Map New forecast layout! Learn more

10-Day Weather Forecast

Advertisements
Track Severe Weather on mobile